Lagrange, ME

6:54 PM EDT on October 22, 2014 (GMT -0400)
SeDoMoCha Campus | Change Station
CLOSE
Current Station
Personal Weather Station
Location: Dover-Foxcroft, ME
Elevation: 381 ft
Nearby Weather Stations
Active Advisory: Areal Flood Watch

Elev 381 ft 45.19 °N, 69.23 °W | Updated 10 seconds ago

Overcast
Overcast
46.0 °F
Feels Like 41 °F
N
9.0
Wind Variable Wind from NE
Gusts 20.0 mph

Today
High -- | Low -- °F
--% Chance of Precip.
Yesterday
High -- | Low -- °F
Precip. -- in
7:00 AM 5:38 PM
Waning Crescent, 1% visible
Pressure 30.18 in
Visibility 10.0 miles
Clouds Mostly Cloudy 1600 ft
Overcast 2200 ft
Windchill 41 °F
Dew Point 41 °F
Humidity 84%
Rainfall 0.00 in
Snow Depth Not available.
UV 0 out of 12
Pollen .10 out of 12
Air Quality Not available.
Flu Activity Not available.
METAR KBGR 222153Z 03014KT 10SM -RA BKN016 OVC022 08/07 A3018 RMK AO2 RAB53 SLP219 P0000 T00830067

More Conditions Fewer Conditions

Pressure 30.18 in
Visibility 10.0 miles
Clouds Mostly Cloudy 1600 ft
Overcast 2200 ft
Windchill 41 °F
Dew Point 41 °F
Humidity 84%
Rainfall 0.00 in
Snow Depth Not available.
UV 0 out of 12
Pollen .10 out of 12
Air Quality Not available.
Flu Activity Not available.
METAR KBGR 222153Z 03014KT 10SM -RA BKN016 OVC022 08/07 A3018 RMK AO2 RAB53 SLP219 P0000 T00830067

More Conditions Fewer Conditions

10-Day Weather Forecast

Almanac

Astronomy

Oct. 22, 2014 Rise Set
Actual Time 7:00 AM EDT 5:38 PM EDT
Civil Twilight 6:30 AM EDT 6:08 PM EDT
Nautical Twilight 5:56 AM EDT 6:42 PM EDT
Astronomical Twilight 5:21 AM EDT 7:16 PM EDT
Moon 5:34 AM EDT 5:05 PM EDT
Length of Visible Light 11h 37m
Length of Day
10h 37m
Tomorrow will be 2m 58s shorter.
Waning Crescent, 1% of the Moon is Illuminated
Today
Waning Crescent
Oct 23
New
Oct 30
First Quarter
Nov 6
Full
Nov 14
Last Quarter

Today's Extremes

State Highs State Lows

Community

WunderPhotos

Upload Photos

1,764,065 photos uploaded!

WunderBlogs® & News

Nearby

Snow Depth

Station Depth Elevation
No new snow has been reported.

Earthquake Activity

City Distance Mag. Time & Date
No recent earthquake activity has been reported nearby.
Minimum magnitude displayed is 2.5.

Coastal Water Temperatures

Place Temperature
No Stations Reporting

Nearby Weather Stations